Search for airport 
image banner adimage banner adimage banner ad
image banner ad

63CN - Meadowlark Field

Located in Livermore, United States

ICAO - 63CN, IATA -

Data provided by Airmate  

General information

Coordinates: N37°39'41" W121°41'37"
Elevation is 730 feet MSL.
Magnetic variation is 16° East
View others Airports in California

Operational data

Special qualification required
Current time UTC:
Current local time:
Weather at : KLVK - Livermore Muni ( 12 km )
METAR: KLVK 291553Z 20003KT 10SM CLR 21/13 A2995 RMK AO2 SLP139 T02110133
TAF: KLVK 291122Z 2912/3012 29006KT P6SM SKC FM292100 28009KT P6SM SKC FM300600 VRB05KT P6SM SKC
View NOTAMs / SUP AIP / TFR affecting this airport [VIEW]
Communications frequencies: [VIEW]

Runways:

RWY identifierQFULength (ft)Width (ft)SurfaceLDA (ft)
07186025OTHER
25186025OTHER

Airport contact information

Address: Livermore United States

Satellite view of 63CN